sensor_id;sensor_type;location;lat;lon;timestamp;P1;durP1;ratioP1;P2;durP2;ratioP2
55218;SDS011;65463;43.864;20.136;2023-12-20T00:02:07;340.80;;;73.30;;
55218;SDS011;65463;43.864;20.136;2023-12-20T00:04:33;254.48;;;63.08;;
55218;SDS011;65463;43.864;20.136;2023-12-20T00:06:59;182.65;;;59.25;;
55218;SDS011;65463;43.864;20.136;2023-12-20T00:09:26;231.35;;;59.95;;
55218;SDS011;65463;43.864;20.136;2023-12-20T00:11:52;166.27;;;54.55;;
55218;SDS011;65463;43.864;20.136;2023-12-20T00:14:17;331.77;;;60.92;;
55218;SDS011;65463;43.864;20.136;2023-12-20T00:16:43;290.02;;;59.03;;
55218;SDS011;65463;43.864;20.136;2023-12-20T00:19:09;309.50;;;61.25;;
55218;SDS011;65463;43.864;20.136;2023-12-20T00:21:35;237.80;;;61.95;;
55218;SDS011;65463;43.864;20.136;2023-12-20T00:24:01;198.38;;;62.92;;
55218;SDS011;65463;43.864;20.136;2023-12-20T00:26:27;203.90;;;59.47;;
55218;SDS011;65463;43.864;20.136;2023-12-20T00:28:53;361.73;;;78.78;;
55218;SDS011;65463;43.864;20.136;2023-12-20T00:31:19;297.50;;;61.63;;
55218;SDS011;65463;43.864;20.136;2023-12-20T00:33:45;178.45;;;61.55;;
55218;SDS011;65463;43.864;20.136;2023-12-20T00:36:12;309.92;;;70.43;;
55218;SDS011;65463;43.864;20.136;2023-12-20T00:38:38;355.40;;;70.05;;
55218;SDS011;65463;43.864;20.136;2023-12-20T00:41:04;241.65;;;58.33;;
55218;SDS011;65463;43.864;20.136;2023-12-20T00:43:31;165.05;;;54.00;;
55218;SDS011;65463;43.864;20.136;2023-12-20T00:45:57;159.95;;;50.85;;
55218;SDS011;65463;43.864;20.136;2023-12-20T00:48:25;162.57;;;53.30;;
55218;SDS011;65463;43.864;20.136;2023-12-20T00:50:56;288.35;;;63.38;;
55218;SDS011;65463;43.864;20.136;2023-12-20T00:53:22;361.77;;;65.85;;
55218;SDS011;65463;43.864;20.136;2023-12-20T00:55:49;174.50;;;55.20;;
55218;SDS011;65463;43.864;20.136;2023-12-20T00:58:15;209.40;;;57.92;;
55218;SDS011;65463;43.864;20.136;2023-12-20T01:00:42;157.27;;;52.70;;
55218;SDS011;65463;43.864;20.136;2023-12-20T01:03:09;174.52;;;54.13;;
55218;SDS011;65463;43.864;20.136;2023-12-20T01:05:35;203.48;;;54.63;;
55218;SDS011;65463;43.864;20.136;2023-12-20T01:08:01;260.92;;;57.42;;
55218;SDS011;65463;43.864;20.136;2023-12-20T01:10:28;213.90;;;54.55;;
55218;SDS011;65463;43.864;20.136;2023-12-20T01:12:54;253.80;;;58.50;;
55218;SDS011;65463;43.864;20.136;2023-12-20T01:15:20;311.08;;;61.10;;
55218;SDS011;65463;43.864;20.136;2023-12-20T01:17:47;277.27;;;58.60;;
55218;SDS011;65463;43.864;20.136;2023-12-20T01:20:14;349.20;;;63.75;;
55218;SDS011;65463;43.864;20.136;2023-12-20T01:22:40;240.57;;;57.60;;
55218;SDS011;65463;43.864;20.136;2023-12-20T01:25:08;243.40;;;57.75;;
55218;SDS011;65463;43.864;20.136;2023-12-20T01:27:34;179.23;;;52.05;;
55218;SDS011;65463;43.864;20.136;2023-12-20T01:30:00;229.73;;;56.10;;
55218;SDS011;65463;43.864;20.136;2023-12-20T01:32:26;347.02;;;58.33;;
55218;SDS011;65463;43.864;20.136;2023-12-20T01:34:52;206.07;;;54.35;;
55218;SDS011;65463;43.864;20.136;2023-12-20T01:37:18;129.43;;;46.45;;
55218;SDS011;65463;43.864;20.136;2023-12-20T01:39:45;284.33;;;54.83;;
55218;SDS011;65463;43.864;20.136;2023-12-20T01:42:11;206.50;;;49.03;;
55218;SDS011;65463;43.864;20.136;2023-12-20T01:44:37;248.63;;;51.20;;
55218;SDS011;65463;43.864;20.136;2023-12-20T01:47:03;179.43;;;50.90;;
55218;SDS011;65463;43.864;20.136;2023-12-20T01:49:30;181.80;;;48.65;;
55218;SDS011;65463;43.864;20.136;2023-12-20T01:51:56;231.90;;;51.20;;
55218;SDS011;65463;43.864;20.136;2023-12-20T01:54:22;278.38;;;47.60;;
55218;SDS011;65463;43.864;20.136;2023-12-20T01:56:49;197.40;;;46.38;;
55218;SDS011;65463;43.864;20.136;2023-12-20T01:59:15;164.75;;;44.90;;
55218;SDS011;65463;43.864;20.136;2023-12-20T02:01:42;202.70;;;47.20;;
55218;SDS011;65463;43.864;20.136;2023-12-20T02:04:09;230.45;;;49.40;;
55218;SDS011;65463;43.864;20.136;2023-12-20T02:06:35;254.00;;;52.28;;
55218;SDS011;65463;43.864;20.136;2023-12-20T02:09:01;242.20;;;54.90;;
55218;SDS011;65463;43.864;20.136;2023-12-20T02:11:27;261.85;;;53.88;;
55218;SDS011;65463;43.864;20.136;2023-12-20T02:13:54;185.50;;;49.53;;
55218;SDS011;65463;43.864;20.136;2023-12-20T02:16:21;269.10;;;54.38;;
55218;SDS011;65463;43.864;20.136;2023-12-20T02:18:47;257.75;;;54.45;;
55218;SDS011;65463;43.864;20.136;2023-12-20T02:21:14;232.65;;;52.67;;
55218;SDS011;65463;43.864;20.136;2023-12-20T02:23:40;303.70;;;54.10;;
55218;SDS011;65463;43.864;20.136;2023-12-20T02:26:07;242.43;;;53.60;;
55218;SDS011;65463;43.864;20.136;2023-12-20T02:28:33;358.17;;;57.28;;
55218;SDS011;65463;43.864;20.136;2023-12-20T02:30:59;251.75;;;54.20;;
55218;SDS011;65463;43.864;20.136;2023-12-20T02:33:25;329.70;;;57.63;;
55218;SDS011;65463;43.864;20.136;2023-12-20T02:35:51;246.60;;;59.22;;
55218;SDS011;65463;43.864;20.136;2023-12-20T02:38:18;294.60;;;60.30;;
55218;SDS011;65463;43.864;20.136;2023-12-20T02:40:44;263.75;;;59.88;;
55218;SDS011;65463;43.864;20.136;2023-12-20T02:43:10;172.63;;;49.25;;
55218;SDS011;65463;43.864;20.136;2023-12-20T02:45:36;276.17;;;56.63;;
55218;SDS011;65463;43.864;20.136;2023-12-20T02:48:02;186.05;;;52.20;;
55218;SDS011;65463;43.864;20.136;2023-12-20T02:50:29;205.95;;;50.03;;
55218;SDS011;65463;43.864;20.136;2023-12-20T02:52:55;133.48;;;44.08;;
55218;SDS011;65463;43.864;20.136;2023-12-20T02:55:21;192.05;;;48.55;;
55218;SDS011;65463;43.864;20.136;2023-12-20T02:57:47;198.80;;;49.38;;
55218;SDS011;65463;43.864;20.136;2023-12-20T03:00:13;138.30;;;44.80;;
55218;SDS011;65463;43.864;20.136;2023-12-20T03:02:40;148.90;;;44.97;;
55218;SDS011;65463;43.864;20.136;2023-12-20T03:05:06;125.70;;;41.67;;
55218;SDS011;65463;43.864;20.136;2023-12-20T03:07:32;135.80;;;44.17;;
55218;SDS011;65463;43.864;20.136;2023-12-20T03:09:58;232.05;;;46.15;;
55218;SDS011;65463;43.864;20.136;2023-12-20T03:12:24;162.45;;;45.72;;
55218;SDS011;65463;43.864;20.136;2023-12-20T03:14:50;131.95;;;41.92;;
55218;SDS011;65463;43.864;20.136;2023-12-20T03:17:16;147.65;;;42.42;;
55218;SDS011;65463;43.864;20.136;2023-12-20T03:19:42;134.30;;;42.17;;
55218;SDS011;65463;43.864;20.136;2023-12-20T03:22:08;137.10;;;43.72;;
55218;SDS011;65463;43.864;20.136;2023-12-20T03:24:34;123.88;;;41.80;;
55218;SDS011;65463;43.864;20.136;2023-12-20T03:27:00;153.77;;;43.05;;
55218;SDS011;65463;43.864;20.136;2023-12-20T03:29:25;149.98;;;42.55;;
55218;SDS011;65463;43.864;20.136;2023-12-20T03:31:51;124.80;;;41.33;;
55218;SDS011;65463;43.864;20.136;2023-12-20T03:34:17;125.60;;;41.25;;
55218;SDS011;65463;43.864;20.136;2023-12-20T03:36:44;144.98;;;43.10;;
55218;SDS011;65463;43.864;20.136;2023-12-20T03:39:12;112.18;;;40.15;;
55218;SDS011;65463;43.864;20.136;2023-12-20T03:41:39;127.80;;;40.15;;
55218;SDS011;65463;43.864;20.136;2023-12-20T03:44:05;140.13;;;40.45;;
55218;SDS011;65463;43.864;20.136;2023-12-20T03:46:31;164.05;;;40.30;;
55218;SDS011;65463;43.864;20.136;2023-12-20T03:48:57;115.88;;;39.97;;
55218;SDS011;65463;43.864;20.136;2023-12-20T03:51:23;165.18;;;39.95;;
55218;SDS011;65463;43.864;20.136;2023-12-20T03:53:49;124.50;;;38.60;;
55218;SDS011;65463;43.864;20.136;2023-12-20T03:56:16;194.30;;;40.58;;
55218;SDS011;65463;43.864;20.136;2023-12-20T03:58:42;328.20;;;43.60;;
55218;SDS011;65463;43.864;20.136;2023-12-20T04:01:12;435.23;;;49.83;;
55218;SDS011;65463;43.864;20.136;2023-12-20T04:03:39;294.55;;;46.13;;
55218;SDS011;65463;43.864;20.136;2023-12-20T04:06:05;304.90;;;46.63;;
55218;SDS011;65463;43.864;20.136;2023-12-20T04:08:31;271.48;;;45.90;;
55218;SDS011;65463;43.864;20.136;2023-12-20T04:10:58;324.80;;;49.92;;
55218;SDS011;65463;43.864;20.136;2023-12-20T04:13:24;218.40;;;47.05;;
55218;SDS011;65463;43.864;20.136;2023-12-20T04:15:50;206.80;;;47.85;;
55218;SDS011;65463;43.864;20.136;2023-12-20T04:18:17;180.98;;;44.75;;
55218;SDS011;65463;43.864;20.136;2023-12-20T04:20:43;149.75;;;43.47;;
55218;SDS011;65463;43.864;20.136;2023-12-20T04:23:09;185.38;;;44.28;;
55218;SDS011;65463;43.864;20.136;2023-12-20T04:25:35;223.80;;;46.35;;
55218;SDS011;65463;43.864;20.136;2023-12-20T04:28:02;127.85;;;42.70;;
55218;SDS011;65463;43.864;20.136;2023-12-20T04:30:28;118.25;;;42.40;;
55218;SDS011;65463;43.864;20.136;2023-12-20T04:32:54;116.70;;;38.67;;
55218;SDS011;65463;43.864;20.136;2023-12-20T04:35:20;134.38;;;39.15;;
55218;SDS011;65463;43.864;20.136;2023-12-20T04:37:46;157.20;;;43.00;;
55218;SDS011;65463;43.864;20.136;2023-12-20T04:40:14;106.15;;;41.40;;
55218;SDS011;65463;43.864;20.136;2023-12-20T04:42:40;116.70;;;40.13;;
55218;SDS011;65463;43.864;20.136;2023-12-20T04:45:06;241.70;;;47.45;;
55218;SDS011;65463;43.864;20.136;2023-12-20T04:47:33;164.05;;;45.65;;
55218;SDS011;65463;43.864;20.136;2023-12-20T04:49:59;176.85;;;45.53;;
55218;SDS011;65463;43.864;20.136;2023-12-20T04:52:25;198.18;;;48.47;;
55218;SDS011;65463;43.864;20.136;2023-12-20T04:54:51;170.77;;;46.67;;
55218;SDS011;65463;43.864;20.136;2023-12-20T04:57:18;182.10;;;46.67;;
55218;SDS011;65463;43.864;20.136;2023-12-20T04:59:44;115.53;;;43.97;;
55218;SDS011;65463;43.864;20.136;2023-12-20T05:02:10;145.77;;;42.97;;
55218;SDS011;65463;43.864;20.136;2023-12-20T05:04:37;113.32;;;42.83;;
55218;SDS011;65463;43.864;20.136;2023-12-20T05:07:03;139.68;;;45.20;;
55218;SDS011;65463;43.864;20.136;2023-12-20T05:09:30;156.07;;;44.88;;
55218;SDS011;65463;43.864;20.136;2023-12-20T05:11:56;133.63;;;45.72;;
55218;SDS011;65463;43.864;20.136;2023-12-20T05:14:22;142.07;;;47.17;;
55218;SDS011;65463;43.864;20.136;2023-12-20T05:16:49;127.25;;;45.85;;
55218;SDS011;65463;43.864;20.136;2023-12-20T05:19:15;127.20;;;43.95;;
55218;SDS011;65463;43.864;20.136;2023-12-20T05:21:42;116.10;;;44.42;;
55218;SDS011;65463;43.864;20.136;2023-12-20T05:24:08;94.93;;;41.30;;
55218;SDS011;65463;43.864;20.136;2023-12-20T05:26:34;90.65;;;39.53;;
55218;SDS011;65463;43.864;20.136;2023-12-20T05:29:00;90.45;;;39.65;;
55218;SDS011;65463;43.864;20.136;2023-12-20T05:31:26;97.63;;;46.05;;
55218;SDS011;65463;43.864;20.136;2023-12-20T05:33:55;90.95;;;40.97;;
55218;SDS011;65463;43.864;20.136;2023-12-20T05:36:21;94.38;;;41.17;;
55218;SDS011;65463;43.864;20.136;2023-12-20T05:38:48;100.20;;;42.83;;
55218;SDS011;65463;43.864;20.136;2023-12-20T05:41:14;96.72;;;42.58;;
55218;SDS011;65463;43.864;20.136;2023-12-20T05:43:41;94.47;;;41.75;;
55218;SDS011;65463;43.864;20.136;2023-12-20T05:46:09;98.10;;;41.95;;
55218;SDS011;65463;43.864;20.136;2023-12-20T05:48:36;125.65;;;45.97;;
55218;SDS011;65463;43.864;20.136;2023-12-20T05:51:02;109.80;;;46.08;;
55218;SDS011;65463;43.864;20.136;2023-12-20T05:53:29;133.15;;;47.53;;
55218;SDS011;65463;43.864;20.136;2023-12-20T05:55:55;113.65;;;45.92;;
55218;SDS011;65463;43.864;20.136;2023-12-20T05:58:22;119.90;;;44.97;;
55218;SDS011;65463;43.864;20.136;2023-12-20T06:00:48;128.10;;;47.60;;
55218;SDS011;65463;43.864;20.136;2023-12-20T06:03:14;106.00;;;43.13;;
55218;SDS011;65463;43.864;20.136;2023-12-20T06:05:41;110.25;;;44.03;;
55218;SDS011;65463;43.864;20.136;2023-12-20T06:08:07;144.57;;;49.40;;
55218;SDS011;65463;43.864;20.136;2023-12-20T06:10:33;134.07;;;51.05;;
55218;SDS011;65463;43.864;20.136;2023-12-20T06:13:01;122.20;;;50.15;;
55218;SDS011;65463;43.864;20.136;2023-12-20T06:15:28;118.88;;;47.10;;
55218;SDS011;65463;43.864;20.136;2023-12-20T06:17:54;110.88;;;46.80;;
55218;SDS011;65463;43.864;20.136;2023-12-20T06:20:20;99.95;;;44.85;;
55218;SDS011;65463;43.864;20.136;2023-12-20T06:22:46;111.28;;;48.22;;
55218;SDS011;65463;43.864;20.136;2023-12-20T06:25:12;108.00;;;45.80;;
55218;SDS011;65463;43.864;20.136;2023-12-20T06:27:40;107.43;;;44.25;;
55218;SDS011;65463;43.864;20.136;2023-12-20T06:30:06;96.53;;;42.75;;
55218;SDS011;65463;43.864;20.136;2023-12-20T06:32:34;118.55;;;46.97;;
55218;SDS011;65463;43.864;20.136;2023-12-20T06:35:01;127.85;;;50.20;;
55218;SDS011;65463;43.864;20.136;2023-12-20T06:37:27;113.10;;;46.30;;
55218;SDS011;65463;43.864;20.136;2023-12-20T06:39:53;112.00;;;45.00;;
55218;SDS011;65463;43.864;20.136;2023-12-20T06:42:19;107.68;;;44.92;;
55218;SDS011;65463;43.864;20.136;2023-12-20T06:44:46;101.28;;;42.53;;
55218;SDS011;65463;43.864;20.136;2023-12-20T06:47:12;97.47;;;42.78;;
55218;SDS011;65463;43.864;20.136;2023-12-20T06:49:39;96.75;;;42.78;;
55218;SDS011;65463;43.864;20.136;2023-12-20T06:52:05;92.32;;;41.05;;
55218;SDS011;65463;43.864;20.136;2023-12-20T06:54:32;110.78;;;43.50;;
55218;SDS011;65463;43.864;20.136;2023-12-20T06:56:59;115.32;;;46.42;;
55218;SDS011;65463;43.864;20.136;2023-12-20T06:59:27;113.15;;;44.53;;
55218;SDS011;65463;43.864;20.136;2023-12-20T07:01:53;125.85;;;49.22;;
55218;SDS011;65463;43.864;20.136;2023-12-20T07:04:19;130.02;;;48.55;;
55218;SDS011;65463;43.864;20.136;2023-12-20T07:06:47;104.32;;;44.03;;
55218;SDS011;65463;43.864;20.136;2023-12-20T07:09:16;108.80;;;44.92;;
55218;SDS011;65463;43.864;20.136;2023-12-20T07:11:42;108.03;;;45.25;;
55218;SDS011;65463;43.864;20.136;2023-12-20T07:14:08;102.25;;;43.30;;
55218;SDS011;65463;43.864;20.136;2023-12-20T07:16:34;101.38;;;42.50;;
55218;SDS011;65463;43.864;20.136;2023-12-20T07:19:01;107.72;;;45.72;;
55218;SDS011;65463;43.864;20.136;2023-12-20T07:21:27;115.55;;;46.67;;
55218;SDS011;65463;43.864;20.136;2023-12-20T07:23:53;99.32;;;43.88;;
55218;SDS011;65463;43.864;20.136;2023-12-20T07:26:19;104.05;;;43.70;;
55218;SDS011;65463;43.864;20.136;2023-12-20T07:28:46;119.15;;;46.70;;
55218;SDS011;65463;43.864;20.136;2023-12-20T07:31:12;122.70;;;50.90;;
55218;SDS011;65463;43.864;20.136;2023-12-20T07:33:38;120.93;;;47.42;;
55218;SDS011;65463;43.864;20.136;2023-12-20T07:36:04;110.43;;;43.47;;
55218;SDS011;65463;43.864;20.136;2023-12-20T07:38:31;112.82;;;44.70;;
55218;SDS011;65463;43.864;20.136;2023-12-20T07:40:57;132.50;;;48.25;;
55218;SDS011;65463;43.864;20.136;2023-12-20T07:43:23;157.18;;;50.13;;
55218;SDS011;65463;43.864;20.136;2023-12-20T07:45:49;153.13;;;49.78;;
55218;SDS011;65463;43.864;20.136;2023-12-20T07:48:15;132.90;;;48.15;;
55218;SDS011;65463;43.864;20.136;2023-12-20T07:50:42;148.75;;;51.58;;
55218;SDS011;65463;43.864;20.136;2023-12-20T07:53:08;117.18;;;50.63;;
55218;SDS011;65463;43.864;20.136;2023-12-20T07:55:34;128.15;;;49.75;;
55218;SDS011;65463;43.864;20.136;2023-12-20T07:58:00;127.40;;;51.00;;
55218;SDS011;65463;43.864;20.136;2023-12-20T08:00:27;144.73;;;60.03;;
55218;SDS011;65463;43.864;20.136;2023-12-20T08:02:53;113.28;;;48.38;;
55218;SDS011;65463;43.864;20.136;2023-12-20T08:05:19;118.53;;;50.28;;
55218;SDS011;65463;43.864;20.136;2023-12-20T08:07:45;116.93;;;48.75;;
55218;SDS011;65463;43.864;20.136;2023-12-20T08:10:12;117.93;;;47.28;;
55218;SDS011;65463;43.864;20.136;2023-12-20T08:12:38;113.78;;;47.97;;
55218;SDS011;65463;43.864;20.136;2023-12-20T08:15:05;104.57;;;43.78;;
55218;SDS011;65463;43.864;20.136;2023-12-20T08:17:31;108.35;;;45.05;;
55218;SDS011;65463;43.864;20.136;2023-12-20T08:19:57;103.45;;;43.90;;
55218;SDS011;65463;43.864;20.136;2023-12-20T08:22:25;110.78;;;47.17;;
55218;SDS011;65463;43.864;20.136;2023-12-20T08:24:56;142.13;;;52.40;;
55218;SDS011;65463;43.864;20.136;2023-12-20T08:27:22;123.75;;;48.60;;
55218;SDS011;65463;43.864;20.136;2023-12-20T08:29:48;122.22;;;47.97;;
55218;SDS011;65463;43.864;20.136;2023-12-20T08:32:15;132.48;;;52.42;;
55218;SDS011;65463;43.864;20.136;2023-12-20T08:34:43;111.13;;;47.63;;
55218;SDS011;65463;43.864;20.136;2023-12-20T08:37:09;108.50;;;45.72;;
55218;SDS011;65463;43.864;20.136;2023-12-20T08:39:35;114.97;;;46.67;;
55218;SDS011;65463;43.864;20.136;2023-12-20T08:42:02;118.88;;;47.63;;
55218;SDS011;65463;43.864;20.136;2023-12-20T08:44:28;112.20;;;46.38;;
55218;SDS011;65463;43.864;20.136;2023-12-20T08:46:57;112.43;;;43.72;;
55218;SDS011;65463;43.864;20.136;2023-12-20T08:49:23;96.97;;;42.15;;
55218;SDS011;65463;43.864;20.136;2023-12-20T08:51:50;84.10;;;38.70;;
55218;SDS011;65463;43.864;20.136;2023-12-20T08:54:16;77.55;;;38.45;;
55218;SDS011;65463;43.864;20.136;2023-12-20T08:56:44;79.93;;;36.65;;
55218;SDS011;65463;43.864;20.136;2023-12-20T08:59:11;74.22;;;35.72;;
55218;SDS011;65463;43.864;20.136;2023-12-20T09:01:37;73.97;;;36.10;;
55218;SDS011;65463;43.864;20.136;2023-12-20T09:04:03;73.55;;;36.38;;
55218;SDS011;65463;43.864;20.136;2023-12-20T09:06:31;77.75;;;37.05;;
55218;SDS011;65463;43.864;20.136;2023-12-20T09:08:59;83.82;;;40.17;;
55218;SDS011;65463;43.864;20.136;2023-12-20T09:11:26;76.57;;;39.78;;
55218;SDS011;65463;43.864;20.136;2023-12-20T09:13:52;90.30;;;44.50;;
55218;SDS011;65463;43.864;20.136;2023-12-20T09:16:18;90.22;;;44.85;;
55218;SDS011;65463;43.864;20.136;2023-12-20T09:18:44;95.15;;;46.72;;
55218;SDS011;65463;43.864;20.136;2023-12-20T09:21:10;104.07;;;41.22;;
55218;SDS011;65463;43.864;20.136;2023-12-20T09:23:41;116.35;;;42.95;;
55218;SDS011;65463;43.864;20.136;2023-12-20T09:26:08;120.03;;;43.80;;
55218;SDS011;65463;43.864;20.136;2023-12-20T09:28:34;115.43;;;40.28;;
55218;SDS011;65463;43.864;20.136;2023-12-20T09:31:02;102.03;;;40.83;;
55218;SDS011;65463;43.864;20.136;2023-12-20T09:33:28;92.38;;;38.65;;
55218;SDS011;65463;43.864;20.136;2023-12-20T09:35:54;104.63;;;40.63;;
55218;SDS011;65463;43.864;20.136;2023-12-20T09:38:21;86.57;;;41.47;;
55218;SDS011;65463;43.864;20.136;2023-12-20T09:40:54;78.78;;;38.83;;
55218;SDS011;65463;43.864;20.136;2023-12-20T09:43:21;75.85;;;38.03;;
55218;SDS011;65463;43.864;20.136;2023-12-20T09:45:53;66.93;;;35.67;;
55218;SDS011;65463;43.864;20.136;2023-12-20T09:48:19;72.10;;;36.78;;
55218;SDS011;65463;43.864;20.136;2023-12-20T09:50:46;76.93;;;38.80;;
55218;SDS011;65463;43.864;20.136;2023-12-20T09:53:14;80.65;;;39.83;;
55218;SDS011;65463;43.864;20.136;2023-12-20T09:55:41;77.45;;;41.63;;
55218;SDS011;65463;43.864;20.136;2023-12-20T09:58:08;82.22;;;43.63;;
55218;SDS011;65463;43.864;20.136;2023-12-20T10:00:36;79.70;;;42.92;;
55218;SDS011;65463;43.864;20.136;2023-12-20T10:03:03;75.15;;;40.83;;
55218;SDS011;65463;43.864;20.136;2023-12-20T10:05:31;89.68;;;45.58;;
55218;SDS011;65463;43.864;20.136;2023-12-20T10:07:57;85.65;;;42.47;;
55218;SDS011;65463;43.864;20.136;2023-12-20T10:10:24;90.53;;;40.50;;
55218;SDS011;65463;43.864;20.136;2023-12-20T10:13:03;85.72;;;41.05;;
55218;SDS011;65463;43.864;20.136;2023-12-20T10:15:30;90.55;;;39.90;;
55218;SDS011;65463;43.864;20.136;2023-12-20T10:17:56;95.28;;;42.70;;
55218;SDS011;65463;43.864;20.136;2023-12-20T10:20:25;83.78;;;42.63;;
55218;SDS011;65463;43.864;20.136;2023-12-20T10:22:53;83.90;;;43.25;;
55218;SDS011;65463;43.864;20.136;2023-12-20T10:25:20;90.15;;;45.15;;
55218;SDS011;65463;43.864;20.136;2023-12-20T10:27:46;83.30;;;43.30;;
55218;SDS011;65463;43.864;20.136;2023-12-20T10:30:13;120.55;;;52.88;;
55218;SDS011;65463;43.864;20.136;2023-12-20T10:32:40;110.45;;;44.78;;
55218;SDS011;65463;43.864;20.136;2023-12-20T10:35:06;98.50;;;45.50;;
55218;SDS011;65463;43.864;20.136;2023-12-20T10:37:36;95.45;;;44.50;;
55218;SDS011;65463;43.864;20.136;2023-12-20T10:40:03;98.20;;;48.20;;
55218;SDS011;65463;43.864;20.136;2023-12-20T10:42:29;102.60;;;47.40;;
55218;SDS011;65463;43.864;20.136;2023-12-20T10:44:55;94.70;;;47.97;;
55218;SDS011;65463;43.864;20.136;2023-12-20T10:47:22;105.60;;;47.20;;
55218;SDS011;65463;43.864;20.136;2023-12-20T10:49:52;100.63;;;46.35;;
55218;SDS011;65463;43.864;20.136;2023-12-20T10:52:19;105.03;;;46.28;;
55218;SDS011;65463;43.864;20.136;2023-12-20T10:54:45;108.22;;;47.65;;
55218;SDS011;65463;43.864;20.136;2023-12-20T10:57:11;104.55;;;45.70;;
55218;SDS011;65463;43.864;20.136;2023-12-20T10:59:38;105.90;;;45.63;;
55218;SDS011;65463;43.864;20.136;2023-12-20T11:02:05;117.30;;;45.42;;
55218;SDS011;65463;43.864;20.136;2023-12-20T11:05:06;118.93;;;44.60;;
55218;SDS011;65463;43.864;20.136;2023-12-20T11:07:35;115.68;;;46.88;;
55218;SDS011;65463;43.864;20.136;2023-12-20T11:12:34;114.90;;;50.22;;
55218;SDS011;65463;43.864;20.136;2023-12-20T11:15:02;107.18;;;49.15;;
55218;SDS011;65463;43.864;20.136;2023-12-20T11:17:29;142.07;;;50.67;;
55218;SDS011;65463;43.864;20.136;2023-12-20T11:22:22;133.43;;;48.55;;
55218;SDS011;65463;43.864;20.136;2023-12-20T11:24:49;112.95;;;48.75;;
55218;SDS011;65463;43.864;20.136;2023-12-20T11:27:16;116.55;;;47.47;;
55218;SDS011;65463;43.864;20.136;2023-12-20T11:29:42;137.38;;;50.15;;
55218;SDS011;65463;43.864;20.136;2023-12-20T11:37:21;120.35;;;47.38;;
55218;SDS011;65463;43.864;20.136;2023-12-20T11:39:56;117.65;;;44.15;;
55218;SDS011;65463;43.864;20.136;2023-12-20T11:42:25;113.72;;;43.10;;
55218;SDS011;65463;43.864;20.136;2023-12-20T11:44:52;121.35;;;44.50;;
55218;SDS011;65463;43.864;20.136;2023-12-20T11:47:22;117.40;;;43.67;;
55218;SDS011;65463;43.864;20.136;2023-12-20T11:49:50;144.73;;;42.72;;
55218;SDS011;65463;43.864;20.136;2023-12-20T11:52:17;165.73;;;70.88;;
55218;SDS011;65463;43.864;20.136;2023-12-20T11:54:43;123.28;;;44.13;;
55218;SDS011;65463;43.864;20.136;2023-12-20T11:57:10;122.57;;;45.17;;
55218;SDS011;65463;43.864;20.136;2023-12-20T11:59:36;127.43;;;46.10;;
55218;SDS011;65463;43.864;20.136;2023-12-20T12:02:02;118.85;;;47.95;;
55218;SDS011;65463;43.864;20.136;2023-12-20T12:04:29;113.10;;;45.38;;
55218;SDS011;65463;43.864;20.136;2023-12-20T12:06:55;116.07;;;47.22;;
55218;SDS011;65463;43.864;20.136;2023-12-20T12:09:21;125.30;;;47.20;;
55218;SDS011;65463;43.864;20.136;2023-12-20T12:11:48;126.07;;;50.33;;
55218;SDS011;65463;43.864;20.136;2023-12-20T12:14:15;116.55;;;49.42;;
55218;SDS011;65463;43.864;20.136;2023-12-20T12:16:41;124.72;;;49.15;;
55218;SDS011;65463;43.864;20.136;2023-12-20T12:19:19;124.95;;;48.05;;
55218;SDS011;65463;43.864;20.136;2023-12-20T12:21:46;129.25;;;51.50;;
55218;SDS011;65463;43.864;20.136;2023-12-20T12:24:12;129.95;;;52.17;;
55218;SDS011;65463;43.864;20.136;2023-12-20T12:26:41;120.10;;;52.10;;
55218;SDS011;65463;43.864;20.136;2023-12-20T12:29:07;124.88;;;54.08;;
55218;SDS011;65463;43.864;20.136;2023-12-20T12:31:38;129.05;;;53.05;;
55218;SDS011;65463;43.864;20.136;2023-12-20T12:34:05;128.35;;;54.17;;
55218;SDS011;65463;43.864;20.136;2023-12-20T12:36:35;119.65;;;50.75;;
55218;SDS011;65463;43.864;20.136;2023-12-20T12:39:03;128.75;;;52.97;;
55218;SDS011;65463;43.864;20.136;2023-12-20T12:41:30;139.77;;;54.78;;
55218;SDS011;65463;43.864;20.136;2023-12-20T12:43:59;142.45;;;61.00;;
55218;SDS011;65463;43.864;20.136;2023-12-20T12:46:26;160.25;;;66.35;;
55218;SDS011;65463;43.864;20.136;2023-12-20T12:48:52;178.82;;;70.95;;
55218;SDS011;65463;43.864;20.136;2023-12-20T12:51:18;180.43;;;77.60;;
55218;SDS011;65463;43.864;20.136;2023-12-20T12:53:49;212.98;;;96.53;;
55218;SDS011;65463;43.864;20.136;2023-12-20T12:56:15;153.50;;;59.17;;
55218;SDS011;65463;43.864;20.136;2023-12-20T12:58:42;138.25;;;52.65;;
55218;SDS011;65463;43.864;20.136;2023-12-20T13:01:08;148.93;;;56.28;;
55218;SDS011;65463;43.864;20.136;2023-12-20T13:03:35;138.38;;;50.75;;
55218;SDS011;65463;43.864;20.136;2023-12-20T13:06:01;139.77;;;50.95;;
55218;SDS011;65463;43.864;20.136;2023-12-20T13:08:28;132.23;;;51.45;;
55218;SDS011;65463;43.864;20.136;2023-12-20T13:10:54;131.63;;;51.60;;
55218;SDS011;65463;43.864;20.136;2023-12-20T13:13:23;143.52;;;53.08;;
55218;SDS011;65463;43.864;20.136;2023-12-20T13:15:49;149.95;;;54.55;;
55218;SDS011;65463;43.864;20.136;2023-12-20T13:18:18;151.68;;;53.25;;
55218;SDS011;65463;43.864;20.136;2023-12-20T13:20:47;132.98;;;49.55;;
55218;SDS011;65463;43.864;20.136;2023-12-20T13:23:13;140.48;;;50.50;;
55218;SDS011;65463;43.864;20.136;2023-12-20T13:25:40;128.43;;;50.92;;
55218;SDS011;65463;43.864;20.136;2023-12-20T13:28:06;141.77;;;52.33;;
55218;SDS011;65463;43.864;20.136;2023-12-20T13:30:33;149.98;;;57.42;;
55218;SDS011;65463;43.864;20.136;2023-12-20T13:33:02;155.85;;;56.20;;
55218;SDS011;65463;43.864;20.136;2023-12-20T13:35:28;150.20;;;56.05;;
55218;SDS011;65463;43.864;20.136;2023-12-20T13:37:54;145.10;;;53.58;;
55218;SDS011;65463;43.864;20.136;2023-12-20T13:40:21;151.10;;;54.58;;
55218;SDS011;65463;43.864;20.136;2023-12-20T13:42:47;143.63;;;52.90;;
55218;SDS011;65463;43.864;20.136;2023-12-20T13:45:13;140.80;;;54.03;;
55218;SDS011;65463;43.864;20.136;2023-12-20T13:47:40;137.15;;;51.03;;
55218;SDS011;65463;43.864;20.136;2023-12-20T13:50:06;148.50;;;52.17;;
55218;SDS011;65463;43.864;20.136;2023-12-20T13:52:32;131.57;;;45.40;;
55218;SDS011;65463;43.864;20.136;2023-12-20T13:55:01;142.52;;;45.75;;
55218;SDS011;65463;43.864;20.136;2023-12-20T13:57:27;132.23;;;47.83;;
55218;SDS011;65463;43.864;20.136;2023-12-20T13:59:56;139.38;;;46.10;;
55218;SDS011;65463;43.864;20.136;2023-12-20T14:02:23;169.98;;;51.70;;
55218;SDS011;65463;43.864;20.136;2023-12-20T14:04:49;156.93;;;51.67;;
55218;SDS011;65463;43.864;20.136;2023-12-20T14:07:15;182.70;;;53.72;;